Time;durP1;ratioP1;P1;durP2;ratioP2;P2;SDS_P1;SDS_P2;PMS_P1;PMS_P2;Temp;Humidity;BMP_temperature;BMP_pressure;BME280_temperature;BME280_humidity;BME280_pressure;Samples;Min_cycle;Max_cycle;Signal;HPM_P1;HPM_P2
2022/04/29 00:00:09;;;;;;;;;;;8.10;99.90;;;;;;5094049;28;19920;-59
2022/04/29 00:02:35;;;;;;;;;;;8.00;99.90;;;;;;5093955;28;19995;-59
2022/04/29 00:05:01;;;;;;;;;;;8.00;99.90;;;;;;5075780;28;20030;-59
2022/04/29 00:07:26;;;;;;;;;;;8.00;99.90;;;;;;5094045;28;19920;-59
2022/04/29 00:09:52;;;;;;;;;;;8.00;99.90;;;;;;5094022;28;20294;-59
2022/04/29 00:12:19;;;;;;;;;;;7.90;99.90;;;;;;5093847;28;19924;-59
2022/04/29 00:14:45;;;;;;;;;;;8.00;99.90;;;;;;5093927;28;19963;-59
2022/04/29 00:17:11;;;;;;;;;;;8.00;99.90;;;;;;5093628;28;20404;-59
2022/04/29 00:19:37;;;;;;;;;;;7.90;99.90;;;;;;5093447;28;19923;-59
2022/04/29 00:22:03;;;;;;;;;;;7.90;99.90;;;;;;5093952;28;20065;-59
2022/04/29 00:24:29;;;;;;;;;;;8.00;99.90;;;;;;5073935;28;20494;-58
2022/04/29 00:26:54;;;;;;;;;;;8.00;99.90;;;;;;5075310;28;20010;-59
2022/04/29 00:29:20;;;;;;;;;;;7.90;99.90;;;;;;5075509;28;19926;-59
2022/04/29 00:31:45;;;;;;;;;;;7.90;99.90;;;;;;5075474;28;20408;-59
2022/04/29 00:34:11;;;;;;;;;;;7.90;99.90;;;;;;5093341;28;19920;-59
2022/04/29 00:36:36;;;;;;;;;;;7.90;99.90;;;;;;5093430;28;20396;-59
2022/04/29 00:39:02;;;;;;;;;;;7.90;99.90;;;;;;5093292;28;19920;-59
2022/04/29 00:41:28;;;;;;;;;;;7.80;99.90;;;;;;5093086;28;19920;-59
2022/04/29 00:44:07;;;;;;;;;;;7.70;99.90;;;;;;5075080;28;20392;-59
2022/04/29 00:46:43;;;;;;;;;;;7.70;99.90;;;;;;5093223;28;19924;-59
2022/04/29 00:49:11;;;;;;;;;;;7.70;99.90;;;;;;5093323;28;20018;-59
2022/04/29 00:51:38;;;;;;;;;;;7.70;99.90;;;;;;5093508;28;19928;-59
2022/04/29 00:54:08;;;;;;;;;;;7.60;99.90;;;;;;5093105;28;19956;-59
2022/04/29 00:56:36;;;;;;;;;;;7.60;99.90;;;;;;5093098;28;19920;-59
2022/04/29 00:59:04;;;;;;;;;;;7.60;99.90;;;;;;5092861;28;19981;-60
2022/04/29 01:01:32;;;;;;;;;;;7.60;99.90;;;;;;5092944;28;19931;-59
2022/04/29 01:03:59;;;;;;;;;;;7.60;99.90;;;;;;5092933;28;19928;-59
2022/04/29 01:06:25;;;;;;;;;;;7.70;99.90;;;;;;5092857;28;20439;-60
2022/04/29 01:08:51;;;;;;;;;;;7.70;99.90;;;;;;5075050;28;20058;-60
2022/04/29 01:11:20;;;;;;;;;;;7.60;99.90;;;;;;5092813;28;20008;-60
2022/04/29 01:13:46;;;;;;;;;;;7.60;99.90;;;;;;5092774;28;19920;-60
2022/04/29 01:16:11;;;;;;;;;;;7.60;99.90;;;;;;5092807;28;19969;-60
2022/04/29 01:18:37;;;;;;;;;;;7.50;99.90;;;;;;5092951;28;20014;-60
2022/04/29 01:21:04;;;;;;;;;;;7.50;99.90;;;;;;5074606;28;19928;-60
2022/04/29 01:23:29;;;;;;;;;;;7.50;99.90;;;;;;5092496;28;20326;-60
2022/04/29 01:25:55;;;;;;;;;;;7.50;99.90;;;;;;5074745;28;20007;-61
2022/04/29 01:28:24;;;;;;;;;;;7.40;99.90;;;;;;5092603;28;19927;-60
2022/04/29 01:30:51;;;;;;;;;;;7.50;99.90;;;;;;5074445;28;20409;-60
2022/04/29 01:33:20;;;;;;;;;;;7.50;99.90;;;;;;5092791;28;19955;-60
2022/04/29 01:35:46;;;;;;;;;;;7.60;99.90;;;;;;5092509;28;19927;-60
2022/04/29 01:38:11;;;;;;;;;;;7.60;99.90;;;;;;5092590;28;19924;-60
2022/04/29 01:40:37;;;;;;;;;;;7.60;99.90;;;;;;5092475;28;19924;-60
2022/04/29 01:43:03;;;;;;;;;;;7.60;99.90;;;;;;5092344;28;19981;-60
2022/04/29 01:45:29;;;;;;;;;;;7.60;99.90;;;;;;5092520;28;19967;-60
2022/04/29 01:47:54;;;;;;;;;;;7.50;99.90;;;;;;5092865;28;19927;-60
2022/04/29 01:50:20;;;;;;;;;;;7.60;99.90;;;;;;5092566;28;20421;-60
2022/04/29 01:52:45;;;;;;;;;;;7.50;99.90;;;;;;5092280;28;20049;-60
2022/04/29 01:55:11;;;;;;;;;;;7.50;99.90;;;;;;5092364;28;19973;-60
2022/04/29 01:57:36;;;;;;;;;;;7.60;99.90;;;;;;5092348;28;19971;-60
2022/04/29 02:00:04;;;;;;;;;;;7.60;99.90;;;;;;5092664;28;19928;-60
2022/04/29 02:02:30;;;;;;;;;;;7.50;99.90;;;;;;5092573;28;20031;-61
2022/04/29 02:04:55;;;;;;;;;;;7.50;99.90;;;;;;5092529;28;20041;-60
2022/04/29 02:07:21;;;;;;;;;;;7.40;99.90;;;;;;5074186;28;19921;-60
2022/04/29 02:09:46;;;;;;;;;;;7.40;99.90;;;;;;5092171;28;20024;-60
2022/04/29 02:12:12;;;;;;;;;;;7.40;99.90;;;;;;5092122;28;19920;-60
2022/04/29 02:14:39;;;;;;;;;;;7.40;99.90;;;;;;5092110;28;20439;-60
2022/04/29 02:17:06;;;;;;;;;;;7.40;99.90;;;;;;5092275;28;20007;-60
2022/04/29 02:19:31;;;;;;;;;;;7.50;99.90;;;;;;5092357;28;19991;-60
2022/04/29 02:21:57;;;;;;;;;;;7.50;99.90;;;;;;5092431;28;19920;-60
2022/04/29 02:24:23;;;;;;;;;;;7.50;99.90;;;;;;5091951;28;20297;-60
2022/04/29 02:26:48;;;;;;;;;;;7.50;99.90;;;;;;5092174;28;19952;-60
2022/04/29 02:29:14;;;;;;;;;;;7.50;99.90;;;;;;5091932;28;19974;-60
2022/04/29 02:31:40;;;;;;;;;;;7.50;99.90;;;;;;5092094;28;19921;-60
2022/04/29 02:34:05;;;;;;;;;;;7.50;99.90;;;;;;5074077;28;19927;-60
2022/04/29 02:36:31;;;;;;;;;;;7.50;99.90;;;;;;5092158;28;19927;-60
2022/04/29 02:38:57;;;;;;;;;;;7.50;99.90;;;;;;5092026;28;19924;-60
2022/04/29 02:41:23;;;;;;;;;;;7.50;99.90;;;;;;5091822;28;19928;-60
2022/04/29 02:43:49;;;;;;;;;;;7.50;99.90;;;;;;5092118;28;19924;-60
2022/04/29 02:46:15;;;;;;;;;;;7.50;99.90;;;;;;5092167;28;19924;-60
2022/04/29 02:48:41;;;;;;;;;;;7.50;99.90;;;;;;5077004;28;19931;-60
2022/04/29 02:51:06;;;;;;;;;;;7.50;99.90;;;;;;5095790;28;19927;-60
2022/04/29 02:53:32;;;;;;;;;;;7.50;99.90;;;;;;5095329;28;20010;-60
2022/04/29 02:55:57;;;;;;;;;;;7.40;99.90;;;;;;5095278;28;19924;-60
2022/04/29 02:58:23;;;;;;;;;;;7.50;99.90;;;;;;5095536;28;19924;-60
2022/04/29 03:00:48;;;;;;;;;;;7.40;99.90;;;;;;5095291;28;19924;-60
2022/04/29 03:03:14;;;;;;;;;;;7.40;99.90;;;;;;5095245;28;19928;-60
2022/04/29 03:05:40;;;;;;;;;;;7.40;99.90;;;;;;5095431;28;19920;-60
2022/04/29 03:08:06;;;;;;;;;;;7.50;99.90;;;;;;5077110;28;20294;-60
2022/04/29 03:10:32;;;;;;;;;;;7.50;99.90;;;;;;5095238;28;19919;-60
2022/04/29 03:12:57;;;;;;;;;;;7.40;99.90;;;;;;5095195;28;20434;-60
2022/04/29 03:15:25;;;;;;;;;;;7.50;99.90;;;;;;5095028;28;20328;-60
2022/04/29 03:20:37;;;;;;;;;;;7.40;99.90;;;;;;5094857;28;19920;-60
2022/04/29 03:23:02;;;;;;;;;;;7.50;99.90;;;;;;5094749;28;20479;-60
2022/04/29 03:25:28;;;;;;;;;;;7.50;99.90;;;;;;5095118;28;20011;-60
2022/04/29 03:27:54;;;;;;;;;;;7.60;99.90;;;;;;5094879;28;20370;-60
2022/04/29 03:30:19;;;;;;;;;;;7.40;99.90;;;;;;5094734;28;19927;-60
2022/04/29 03:32:55;;;;;;;;;;;7.50;99.90;;;;;;5094880;28;19921;-60
2022/04/29 03:35:21;;;;;;;;;;;7.50;99.90;;;;;;5094733;28;20014;-60
2022/04/29 03:37:48;;;;;;;;;;;7.50;99.90;;;;;;5094392;28;20006;-60
2022/04/29 03:40:14;;;;;;;;;;;7.50;99.90;;;;;;5094520;28;19920;-60
2022/04/29 03:42:40;;;;;;;;;;;7.50;99.90;;;;;;5094512;28;19966;-60
2022/04/29 03:45:06;;;;;;;;;;;7.50;99.90;;;;;;5094372;28;20011;-60
2022/04/29 03:47:31;;;;;;;;;;;7.50;99.90;;;;;;5094319;28;19931;-60
2022/04/29 03:49:57;;;;;;;;;;;7.50;99.90;;;;;;5094432;28;19928;-61
2022/04/29 03:52:23;;;;;;;;;;;7.50;99.90;;;;;;5094810;28;20006;-60
2022/04/29 03:54:48;;;;;;;;;;;7.50;99.90;;;;;;5094717;28;20401;-60
2022/04/29 03:57:14;;;;;;;;;;;7.60;99.90;;;;;;5094467;28;19920;-60
2022/04/29 03:59:39;;;;;;;;;;;7.60;99.90;;;;;;5075964;28;19920;-60
2022/04/29 04:02:05;;;;;;;;;;;7.60;99.90;;;;;;5094022;28;19920;-60
2022/04/29 04:04:30;;;;;;;;;;;7.60;99.90;;;;;;5075751;28;19920;-60
2022/04/29 04:07:01;;;;;;;;;;;7.50;99.90;;;;;;5093796;28;19932;-60
2022/04/29 04:09:27;;;;;;;;;;;7.60;99.90;;;;;;5094111;28;19973;-60
2022/04/29 04:11:52;;;;;;;;;;;7.60;99.90;;;;;;5094080;28;19928;-61
2022/04/29 04:14:18;;;;;;;;;;;7.60;99.90;;;;;;5093844;28;20251;-60
2022/04/29 04:16:44;;;;;;;;;;;7.60;99.90;;;;;;5093850;28;20015;-60
2022/04/29 04:19:10;;;;;;;;;;;7.70;99.90;;;;;;5075454;28;19920;-60
2022/04/29 04:21:35;;;;;;;;;;;7.60;99.90;;;;;;5093620;28;19920;-60
2022/04/29 04:24:01;;;;;;;;;;;7.60;99.90;;;;;;5093388;28;19927;-60
2022/04/29 04:26:26;;;;;;;;;;;7.60;99.90;;;;;;5093695;28;19951;-60
2022/04/29 04:28:52;;;;;;;;;;;7.50;99.90;;;;;;5093759;28;19924;-60
2022/04/29 04:31:21;;;;;;;;;;;7.50;99.90;;;;;;5093693;28;20018;-61
2022/04/29 04:33:47;;;;;;;;;;;7.50;99.90;;;;;;5093370;28;19920;-60
2022/04/29 04:36:12;;;;;;;;;;;7.50;99.90;;;;;;5093796;28;19920;-60
2022/04/29 04:38:38;;;;;;;;;;;7.60;99.90;;;;;;5093727;28;19927;-60
2022/04/29 04:41:04;;;;;;;;;;;7.50;99.90;;;;;;5093447;28;19927;-60
2022/04/29 04:43:29;;;;;;;;;;;7.60;99.90;;;;;;5093440;28;20018;-60
2022/04/29 04:45:56;;;;;;;;;;;7.70;99.90;;;;;;5093385;28;20380;-60
2022/04/29 04:48:21;;;;;;;;;;;7.70;99.90;;;;;;5093220;28;19920;-60
2022/04/29 04:50:47;;;;;;;;;;;7.80;99.90;;;;;;5093253;28;19931;-61
2022/04/29 04:53:13;;;;;;;;;;;7.80;99.90;;;;;;5093066;28;19920;-60
2022/04/29 04:55:39;;;;;;;;;;;7.80;99.90;;;;;;5075141;28;19920;-61
2022/04/29 04:58:05;;;;;;;;;;;7.90;99.90;;;;;;5093250;28;19920;-61
2022/04/29 05:00:30;;;;;;;;;;;7.90;99.90;;;;;;5093041;28;19920;-60
2022/04/29 05:02:56;;;;;;;;;;;8.00;99.90;;;;;;5075086;28;20416;-61
2022/04/29 05:05:21;;;;;;;;;;;8.10;99.90;;;;;;5092835;28;19924;-61
2022/04/29 05:07:47;;;;;;;;;;;8.10;99.90;;;;;;5092966;28;19928;-61
2022/04/29 05:10:13;;;;;;;;;;;8.10;99.90;;;;;;5092452;28;19920;-60
2022/04/29 05:12:42;;;;;;;;;;;8.20;99.90;;;;;;5092855;28;19920;-61
2022/04/29 05:15:08;;;;;;;;;;;8.20;99.90;;;;;;5092828;28;19963;-61
2022/04/29 05:17:33;;;;;;;;;;;8.30;99.90;;;;;;5092552;28;20413;-60
2022/04/29 05:19:59;;;;;;;;;;;8.40;99.90;;;;;;5092793;28;19920;-60
2022/04/29 05:22:24;;;;;;;;;;;8.40;99.90;;;;;;5092861;28;19959;-60
2022/04/29 05:24:50;;;;;;;;;;;8.50;99.90;;;;;;5092470;28;20381;-60
2022/04/29 05:27:15;;;;;;;;;;;8.50;99.90;;;;;;5092595;28;19924;-60
2022/04/29 05:29:41;;;;;;;;;;;8.50;99.90;;;;;;5092750;28;19984;-60
2022/04/29 05:32:07;;;;;;;;;;;8.60;99.90;;;;;;5092532;28;20437;-60
2022/04/29 05:34:33;;;;;;;;;;;8.60;99.90;;;;;;5092369;28;19924;-60
2022/04/29 05:36:59;;;;;;;;;;;8.70;99.90;;;;;;5073950;28;19928;-60
2022/04/29 05:42:14;;;;;;;;;;;8.70;99.90;;;;;;5092306;28;20393;-61
2022/04/29 05:44:40;;;;;;;;;;;8.80;99.90;;;;;;5092295;28;19928;-61
2022/04/29 05:47:06;;;;;;;;;;;8.70;99.90;;;;;;5092544;28;19973;-60
2022/04/29 05:49:31;;;;;;;;;;;8.80;99.90;;;;;;5074514;28;19920;-61
2022/04/29 05:52:03;;;;;;;;;;;8.90;99.90;;;;;;5092311;28;20344;-60
2022/04/29 05:54:29;;;;;;;;;;;9.00;99.90;;;;;;5092230;28;19920;-61
2022/04/29 05:56:54;;;;;;;;;;;9.00;99.90;;;;;;5092413;28;19920;-61
2022/04/29 05:59:20;;;;;;;;;;;8.90;99.90;;;;;;5073971;28;19927;-61
2022/04/29 06:01:46;;;;;;;;;;;9.00;99.90;;;;;;5092418;28;19927;-61
2022/04/29 06:04:12;;;;;;;;;;;8.90;99.90;;;;;;5073955;28;19924;-60
2022/04/29 06:06:37;;;;;;;;;;;8.90;99.90;;;;;;5092080;28;20378;-61
2022/04/29 06:09:03;;;;;;;;;;;9.00;99.90;;;;;;5092223;28;19920;-61
2022/04/29 06:11:28;;;;;;;;;;;9.10;99.90;;;;;;5092080;28;19920;-61
2022/04/29 06:13:54;;;;;;;;;;;9.10;99.90;;;;;;5091983;28;19920;-61
2022/04/29 06:16:20;;;;;;;;;;;9.00;99.90;;;;;;5092123;28;19924;-61
2022/04/29 06:18:45;;;;;;;;;;;9.10;99.90;;;;;;5092329;28;19928;-61
2022/04/29 06:21:11;;;;;;;;;;;9.10;99.90;;;;;;5092110;28;20301;-61
2022/04/29 06:23:37;;;;;;;;;;;9.20;99.90;;;;;;5095298;28;19928;-60
2022/04/29 06:26:02;;;;;;;;;;;9.30;99.90;;;;;;5096011;28;20019;-60
2022/04/29 06:28:28;;;;;;;;;;;9.40;99.90;;;;;;5096005;28;19924;-60
2022/04/29 06:30:53;;;;;;;;;;;9.40;99.90;;;;;;5095864;28;19926;-63
2022/04/29 06:33:20;;;;;;;;;;;9.50;99.90;;;;;;5095763;28;19924;-61
2022/04/29 06:35:47;;;;;;;;;;;9.60;99.90;;;;;;5095901;28;19965;-62
2022/04/29 06:38:13;;;;;;;;;;;9.60;99.90;;;;;;5095578;28;20412;-61
2022/04/29 06:40:38;;;;;;;;;;;10.20;99.90;;;;;;5095548;28;19963;-62
2022/04/29 06:43:04;;;;;;;;;;;9.70;99.90;;;;;;5095188;28;20262;-62
2022/04/29 06:45:29;;;;;;;;;;;9.60;99.90;;;;;;5077492;28;19973;-60
2022/04/29 06:47:55;;;;;;;;;;;9.70;99.90;;;;;;5095411;28;19990;-63
2022/04/29 06:50:21;;;;;;;;;;;9.70;99.90;;;;;;5077441;28;20408;-64
2022/04/29 06:52:46;;;;;;;;;;;9.70;99.90;;;;;;5095243;28;19971;-62
2022/04/29 06:55:12;;;;;;;;;;;9.80;99.90;;;;;;5095176;28;19920;-62
2022/04/29 06:57:37;;;;;;;;;;;9.70;99.90;;;;;;5095114;28;19924;-64
2022/04/29 07:00:06;;;;;;;;;;;9.70;99.90;;;;;;5095358;28;19920;-62
2022/04/29 07:02:32;;;;;;;;;;;9.70;99.90;;;;;;5095410;28;19920;-62
2022/04/29 07:04:58;;;;;;;;;;;9.80;99.90;;;;;;5095282;28;19935;-61
2022/04/29 07:07:28;;;;;;;;;;;9.70;99.90;;;;;;5077106;28;19920;-61
2022/04/29 07:09:56;;;;;;;;;;;9.70;99.90;;;;;;5095038;28;19927;-62
2022/04/29 07:12:22;;;;;;;;;;;9.70;99.90;;;;;;5095341;28;19927;-62
2022/04/29 07:14:50;;;;;;;;;;;9.60;99.90;;;;;;5095339;28;20290;-62
2022/04/29 07:17:17;;;;;;;;;;;9.60;99.90;;;;;;5095661;28;19920;-62
2022/04/29 07:19:42;;;;;;;;;;;9.70;99.90;;;;;;5095715;28;20030;-62
2022/04/29 07:22:08;;;;;;;;;;;9.70;99.90;;;;;;5095802;28;20019;-61
2022/04/29 07:24:33;;;;;;;;;;;9.60;99.90;;;;;;5094778;28;20418;-62
2022/04/29 07:27:00;;;;;;;;;;;9.70;99.90;;;;;;5094779;28;20435;-61
2022/04/29 07:29:26;;;;;;;;;;;9.60;99.90;;;;;;5095086;28;19927;-61
2022/04/29 07:31:52;;;;;;;;;;;9.60;99.90;;;;;;5094786;28;19919;-61
2022/04/29 07:34:17;;;;;;;;;;;9.60;99.90;;;;;;5094569;28;19935;-62
2022/04/29 07:42:11;;;;;;;;;;;9.80;99.90;;;;;;5094482;28;19927;-61
2022/04/29 07:44:36;;;;;;;;;;;9.90;99.90;;;;;;5094491;28;19924;-61
2022/04/29 07:47:02;;;;;;;;;;;9.90;99.90;;;;;;5094230;28;19927;-61
2022/04/29 07:49:28;;;;;;;;;;;9.90;99.90;;;;;;5094733;28;19931;-62
2022/04/29 07:51:53;;;;;;;;;;;10.00;99.90;;;;;;5094781;28;19920;-61
2022/04/29 07:54:19;;;;;;;;;;;10.00;99.90;;;;;;5094892;28;19920;-62
2022/04/29 07:56:44;;;;;;;;;;;10.10;99.90;;;;;;5094845;28;19920;-62
2022/04/29 07:59:10;;;;;;;;;;;10.20;99.90;;;;;;5094920;28;19920;-62
2022/04/29 08:01:36;;;;;;;;;;;10.30;99.90;;;;;;5094822;28;19923;-62
2022/04/29 08:04:02;;;;;;;;;;;10.50;99.90;;;;;;5076471;28;19927;-62
2022/04/29 08:06:28;;;;;;;;;;;10.50;99.90;;;;;;5094587;28;19973;-62
2022/04/29 08:08:53;;;;;;;;;;;10.60;99.90;;;;;;5094397;28;19920;-61
2022/04/29 08:11:19;;;;;;;;;;;10.70;99.90;;;;;;5094485;28;20282;-60
2022/04/29 08:13:45;;;;;;;;;;;10.70;99.90;;;;;;5094628;28;19920;-61
2022/04/29 08:16:14;;;;;;;;;;;10.60;99.90;;;;;;5094708;28;20369;-63
2022/04/29 08:18:40;;;;;;;;;;;10.60;99.90;;;;;;5094914;28;20387;-62
2022/04/29 08:21:06;;;;;;;;;;;10.60;99.90;;;;;;5094709;28;19920;-63
2022/04/29 08:23:31;;;;;;;;;;;10.60;99.90;;;;;;5094543;28;20298;-63
2022/04/29 08:25:57;;;;;;;;;;;10.60;99.90;;;;;;5094693;28;19924;-63
2022/04/29 08:28:23;;;;;;;;;;;10.70;99.90;;;;;;5093976;28;19920;-63
2022/04/29 08:30:49;;;;;;;;;;;10.60;99.90;;;;;;5094245;28;19920;-64
2022/04/29 08:33:15;;;;;;;;;;;10.70;99.90;;;;;;5094118;28;19926;-63
2022/04/29 08:35:40;;;;;;;;;;;10.80;99.90;;;;;;5094001;28;19920;-63
2022/04/29 08:38:10;;;;;;;;;;;10.90;99.90;;;;;;5094076;28;19966;-64
2022/04/29 08:40:43;;;;;;;;;;;10.80;99.90;;;;;;5094098;28;19928;-65
2022/04/29 08:43:09;;;;;;;;;;;11.00;99.90;;;;;;5094014;28;20350;-66
2022/04/29 08:45:36;;;;;;;;;;;11.20;99.90;;;;;;5092928;28;19927;-65
2022/04/29 08:48:02;;;;;;;;;;;11.20;99.90;;;;;;5093915;28;20027;-65
2022/04/29 08:50:30;;;;;;;;;;;11.30;99.90;;;;;;5094017;28;19928;-65
2022/04/29 08:52:56;;;;;;;;;;;11.30;99.90;;;;;;5093986;28;19920;-64
2022/04/29 09:00:50;;;;;;;;;;;11.30;99.90;;;;;;5093038;28;19973;-63
2022/04/29 09:03:20;;;;;;;;;;;11.50;99.90;;;;;;5092886;28;19920;-59
2022/04/29 09:05:46;;;;;;;;;;;11.50;99.90;;;;;;5092862;28;19919;-60
2022/04/29 09:08:16;;;;;;;;;;;11.50;99.90;;;;;;5091778;28;20278;-59
2022/04/29 09:10:51;;;;;;;;;;;11.50;99.90;;;;;;5091534;28;19920;-60
2022/04/29 09:13:22;;;;;;;;;;;11.50;99.90;;;;;;5092577;28;19927;-61
2022/04/29 09:15:49;;;;;;;;;;;11.50;99.90;;;;;;5092744;28;19936;-61
2022/04/29 09:18:27;;;;;;;;;;;11.50;99.90;;;;;;5092831;28;19924;-60
2022/04/29 09:20:52;;;;;;;;;;;11.50;99.90;;;;;;5092516;28;19932;-62
2022/04/29 09:23:25;;;;;;;;;;;11.60;99.90;;;;;;5092968;28;20364;-62
2022/04/29 09:25:50;;;;;;;;;;;11.60;99.90;;;;;;5093655;28;19977;-62
2022/04/29 09:28:16;;;;;;;;;;;11.60;99.90;;;;;;5093363;28;19920;-62
2022/04/29 09:30:42;;;;;;;;;;;11.50;99.90;;;;;;5093378;28;19920;-63
2022/04/29 09:33:18;;;;;;;;;;;11.40;99.90;;;;;;5093220;28;20404;-62
2022/04/29 09:35:43;;;;;;;;;;;11.30;99.90;;;;;;5092704;28;19929;-62
2022/04/29 09:40:54;;;;;;;;;;;11.50;99.90;;;;;;5092172;28;19923;-62
2022/04/29 09:43:34;;;;;;;;;;;11.40;99.90;;;;;;5092367;28;19920;-62
2022/04/29 09:46:14;;;;;;;;;;;11.30;99.90;;;;;;5092227;28;20391;-62
2022/04/29 09:48:58;;;;;;;;;;;11.30;99.90;;;;;;5092926;28;19920;-62
2022/04/29 09:51:38;;;;;;;;;;;11.30;99.90;;;;;;5092200;28;19920;-62
2022/04/29 09:54:17;;;;;;;;;;;11.30;99.90;;;;;;5092010;28;19920;-61
2022/04/29 09:56:44;;;;;;;;;;;11.40;99.90;;;;;;5094323;28;19926;-63
2022/04/29 09:59:10;;;;;;;;;;;11.30;99.90;;;;;;5096813;28;19920;-62
2022/04/29 10:01:35;;;;;;;;;;;11.30;99.90;;;;;;5096289;28;19920;-62
2022/04/29 10:04:01;;;;;;;;;;;11.40;99.90;;;;;;5096208;28;19924;-60
2022/04/29 10:06:27;;;;;;;;;;;11.20;99.90;;;;;;5096235;28;20285;-61
2022/04/29 10:08:52;;;;;;;;;;;11.20;99.90;;;;;;5078157;28;19990;-61
2022/04/29 10:11:21;;;;;;;;;;;11.00;99.90;;;;;;5096809;28;20357;-62
2022/04/29 10:13:48;;;;;;;;;;;11.10;99.90;;;;;;5096874;28;20483;-62
2022/04/29 10:16:15;;;;;;;;;;;11.00;99.90;;;;;;5096114;28;19920;-61
2022/04/29 10:21:28;;;;;;;;;;;11.00;99.90;;;;;;5096275;28;19920;-61
2022/04/29 10:23:53;;;;;;;;;;;11.00;99.90;;;;;;5078471;28;19931;-61
2022/04/29 10:26:20;;;;;;;;;;;11.00;99.90;;;;;;5096868;28;19920;-61
2022/04/29 10:28:46;;;;;;;;;;;10.90;99.90;;;;;;5077267;28;20285;-61
2022/04/29 10:31:21;;;;;;;;;;;11.00;99.90;;;;;;5095698;28;20006;-61
2022/04/29 10:33:47;;;;;;;;;;;11.10;99.90;;;;;;5095496;28;19924;-60
2022/04/29 10:36:16;;;;;;;;;;;11.10;99.90;;;;;;5095441;28;19927;-61
2022/04/29 10:38:46;;;;;;;;;;;11.10;99.90;;;;;;5095635;28;20274;-61
2022/04/29 10:41:14;;;;;;;;;;;11.20;99.90;;;;;;5095920;28;20051;-60
2022/04/29 10:44:00;;;;;;;;;;;11.10;99.90;;;;;;5095334;28;19931;-60
2022/04/29 10:46:31;;;;;;;;;;;11.10;99.90;;;;;;5013362;28;19925;-60
2022/04/29 10:48:57;;;;;;;;;;;11.10;99.90;;;;;;5013266;28;20414;-60
2022/04/29 10:51:25;;;;;;;;;;;11.00;99.90;;;;;;5013167;28;20016;-61
2022/04/29 10:53:55;;;;;;;;;;;10.90;99.90;;;;;;5012960;28;19925;-61
2022/04/29 10:56:27;;;;;;;;;;;11.00;99.90;;;;;;5013084;28;19922;-61
2022/04/29 10:58:53;;;;;;;;;;;11.10;99.90;;;;;;5012982;28;19926;-61
2022/04/29 11:01:21;;;;;;;;;;;11.20;99.90;;;;;;5013092;28;19928;-61
2022/04/29 11:03:47;;;;;;;;;;;11.20;99.90;;;;;;4996468;28;20015;-60
2022/04/29 11:06:14;;;;;;;;;;;11.20;99.90;;;;;;5012869;28;20084;-61
2022/04/29 11:08:40;;;;;;;;;;;11.30;99.90;;;;;;5012120;28;19922;-61
2022/04/29 11:11:06;;;;;;;;;;;11.20;99.90;;;;;;5012849;28;20376;-61
2022/04/29 11:13:34;;;;;;;;;;;11.30;99.90;;;;;;5012645;28;19922;-61
2022/04/29 11:16:26;;;;;;;;;;;11.40;99.90;;;;;;5012678;28;19921;-61
2022/04/29 11:19:11;;;;;;;;;;;11.50;99.90;;;;;;5011723;28;20000;-61
2022/04/29 11:27:05;;;;;;;;;;;11.70;99.90;;;;;;5095348;28;20306;-62
2022/04/29 11:29:40;;;;;;;;;;;11.80;99.90;;;;;;5095008;28;19921;-62
2022/04/29 11:32:05;;;;;;;;;;;11.70;99.90;;;;;;5095327;28;20358;-62
2022/04/29 11:34:31;;;;;;;;;;;11.50;99.90;;;;;;5094839;28;19928;-62
2022/04/29 11:36:56;;;;;;;;;;;11.60;99.90;;;;;;5094993;28;19943;-62
2022/04/29 11:39:22;;;;;;;;;;;11.60;99.90;;;;;;5095282;28;20382;-62
2022/04/29 11:41:55;;;;;;;;;;;11.60;99.90;;;;;;5095118;28;19924;-62
2022/04/29 11:44:38;;;;;;;;;;;11.70;99.90;;;;;;5076353;28;19924;-61
2022/04/29 11:47:04;;;;;;;;;;;11.70;99.90;;;;;;5094923;28;20277;-62
2022/04/29 11:49:32;;;;;;;;;;;11.80;99.90;;;;;;5094887;28;19927;-62
2022/04/29 11:52:17;;;;;;;;;;;11.90;99.90;;;;;;5076449;28;19927;-63
2022/04/29 11:54:53;;;;;;;;;;;11.90;99.90;;;;;;5076414;28;20384;-62
2022/04/29 11:57:19;;;;;;;;;;;11.90;99.90;;;;;;5094745;28;19920;-62
2022/04/29 11:59:45;;;;;;;;;;;11.90;99.90;;;;;;5094321;28;19927;-61
2022/04/29 12:02:11;;;;;;;;;;;11.70;99.90;;;;;;5094132;28;19920;-63
2022/04/29 12:04:37;;;;;;;;;;;11.80;99.90;;;;;;5094055;28;19924;-61
2022/04/29 12:07:05;;;;;;;;;;;11.90;99.90;;;;;;5093823;28;20335;-61
2022/04/29 12:09:34;;;;;;;;;;;11.90;99.90;;;;;;5093825;28;19927;-62
2022/04/29 12:12:00;;;;;;;;;;;11.80;99.90;;;;;;5094401;28;19974;-62
2022/04/29 12:14:26;;;;;;;;;;;11.80;99.90;;;;;;5094646;28;19924;-62
2022/04/29 12:16:52;;;;;;;;;;;11.90;99.90;;;;;;5094439;28;19920;-62
2022/04/29 12:19:18;;;;;;;;;;;11.90;99.90;;;;;;5094167;28;20419;-62
2022/04/29 12:21:54;;;;;;;;;;;11.70;99.90;;;;;;5094201;28;19920;-62
2022/04/29 12:24:20;;;;;;;;;;;11.70;99.90;;;;;;5093700;28;20332;-62
2022/04/29 12:27:05;;;;;;;;;;;11.70;99.90;;;;;;5093878;28;19920;-62
2022/04/29 12:29:31;;;;;;;;;;;11.70;99.90;;;;;;5094217;28;19926;-62
2022/04/29 12:34:49;;;;;;;;;;;11.70;99.90;;;;;;5094069;28;19998;-63
2022/04/29 12:37:19;;;;;;;;;;;11.70;99.90;;;;;;5093552;28;19920;-62
2022/04/29 12:39:45;;;;;;;;;;;11.60;99.90;;;;;;5094228;28;20357;-62
2022/04/29 12:42:12;;;;;;;;;;;11.70;99.90;;;;;;5094146;28;20020;-62
2022/04/29 12:47:41;;;;;;;;;;;11.70;99.90;;;;;;5093509;28;19926;-62
2022/04/29 12:50:19;;;;;;;;;;;11.70;99.90;;;;;;5075400;28;19920;-62
2022/04/29 12:52:48;;;;;;;;;;;11.60;99.90;;;;;;5093583;28;20282;-62
2022/04/29 12:55:14;;;;;;;;;;;11.60;99.90;;;;;;5075257;28;19924;-62
2022/04/29 12:57:40;;;;;;;;;;;11.80;99.90;;;;;;5093787;28;19920;-62
2022/04/29 13:00:08;;;;;;;;;;;11.80;99.90;;;;;;5093143;28;19926;-63
2022/04/29 13:02:33;;;;;;;;;;;11.90;99.90;;;;;;5093450;28;19924;-62
2022/04/29 13:04:59;;;;;;;;;;;11.90;99.90;;;;;;5092992;28;20374;-63
2022/04/29 13:07:25;;;;;;;;;;;12.00;99.90;;;;;;5093395;28;20275;-63
2022/04/29 13:09:51;;;;;;;;;;;12.00;99.90;;;;;;5093148;28;19969;-63
2022/04/29 13:12:17;;;;;;;;;;;12.00;99.90;;;;;;5093082;28;19920;-63
2022/04/29 13:14:43;;;;;;;;;;;12.00;99.90;;;;;;5093284;28;19920;-64
2022/04/29 13:17:08;;;;;;;;;;;12.10;99.90;;;;;;5092934;28;20444;-62
2022/04/29 13:19:34;;;;;;;;;;;12.20;99.90;;;;;;5092844;28;19920;-63
2022/04/29 13:21:59;;;;;;;;;;;12.10;99.90;;;;;;5093105;28;19927;-63
2022/04/29 13:24:26;;;;;;;;;;;12.00;99.90;;;;;;5093088;28;20011;-62
2022/04/29 13:26:51;;;;;;;;;;;12.00;99.90;;;;;;5093210;28;19927;-62
2022/04/29 13:29:17;;;;;;;;;;;12.10;99.90;;;;;;5093162;28;19924;-64
2022/04/29 13:31:42;;;;;;;;;;;12.00;99.90;;;;;;5074527;28;20443;-62
2022/04/29 13:34:08;;;;;;;;;;;12.10;99.90;;;;;;5093153;28;20014;-62
2022/04/29 13:36:33;;;;;;;;;;;12.00;99.90;;;;;;5074921;28;19993;-63
2022/04/29 13:38:59;;;;;;;;;;;12.10;99.90;;;;;;5093231;28;19974;-64
2022/04/29 13:41:25;;;;;;;;;;;12.10;99.90;;;;;;5074978;28;19935;-62
2022/04/29 13:43:50;;;;;;;;;;;12.20;99.90;;;;;;5092632;28;19931;-63
2022/04/29 13:46:16;;;;;;;;;;;12.10;99.90;;;;;;5093005;28;19920;-63
2022/04/29 13:48:42;;;;;;;;;;;11.90;99.90;;;;;;5093228;28;20007;-63
2022/04/29 13:51:07;;;;;;;;;;;11.90;99.90;;;;;;5074330;28;20293;-63
2022/04/29 13:53:33;;;;;;;;;;;11.90;99.90;;;;;;5092971;28;20382;-63
2022/04/29 13:55:59;;;;;;;;;;;12.00;99.90;;;;;;5092822;28;19920;-63
2022/04/29 13:58:24;;;;;;;;;;;12.10;99.90;;;;;;5092832;28;19920;-63
2022/04/29 14:00:51;;;;;;;;;;;12.00;99.90;;;;;;5092946;28;19920;-64
2022/04/29 14:03:18;;;;;;;;;;;12.10;99.90;;;;;;5092883;28;20255;-63
2022/04/29 14:05:44;;;;;;;;;;;12.00;99.90;;;;;;5092969;28;20006;-63
2022/04/29 14:08:09;;;;;;;;;;;12.10;99.90;;;;;;5092720;28;19958;-63
2022/04/29 14:10:36;;;;;;;;;;;12.20;99.90;;;;;;5092492;28;20258;-64
2022/04/29 14:13:02;;;;;;;;;;;12.20;99.90;;;;;;5075133;28;20011;-63
2022/04/29 14:15:27;;;;;;;;;;;12.30;99.90;;;;;;5092503;28;20007;-63
2022/04/29 14:17:53;;;;;;;;;;;12.20;99.90;;;;;;5092846;28;19927;-63
2022/04/29 14:20:19;;;;;;;;;;;12.10;99.90;;;;;;5092863;28;19955;-65
2022/04/29 14:22:47;;;;;;;;;;;12.10;99.90;;;;;;5074578;28;20377;-62
2022/04/29 14:25:13;;;;;;;;;;;12.10;99.90;;;;;;5092286;28;19931;-63
2022/04/29 14:27:39;;;;;;;;;;;12.00;99.90;;;;;;5074355;28;19924;-64
2022/04/29 14:30:06;;;;;;;;;;;11.90;99.90;;;;;;5092962;28;19924;-64
2022/04/29 14:32:32;;;;;;;;;;;11.80;99.90;;;;;;5092963;28;19924;-64
2022/04/29 14:34:58;;;;;;;;;;;11.80;99.90;;;;;;5092672;28;19924;-63
2022/04/29 14:37:26;;;;;;;;;;;11.80;99.90;;;;;;5092423;28;19920;-63
2022/04/29 14:39:53;;;;;;;;;;;11.80;99.90;;;;;;5092608;28;19919;-63
2022/04/29 14:42:19;;;;;;;;;;;11.80;99.90;;;;;;5092930;28;19927;-63
2022/04/29 14:44:45;;;;;;;;;;;11.70;99.90;;;;;;5095645;28;19924;-63
2022/04/29 14:47:10;;;;;;;;;;;11.70;99.90;;;;;;5095758;28;19926;-63
2022/04/29 14:49:36;;;;;;;;;;;11.80;99.90;;;;;;5095832;28;19920;-64
2022/04/29 14:52:02;;;;;;;;;;;11.80;99.90;;;;;;5096179;28;20014;-63
2022/04/29 14:54:27;;;;;;;;;;;11.80;99.90;;;;;;5096268;28;19924;-63